sensor_id;sensor_type;location;lat;lon;timestamp;pressure;altitude;pressure_sealevel;temperature;humidity
40954;BME280;26686;50.130;8.710;2023-08-24T00:04:20;100321.84;;;24.34;54.62
40954;BME280;26686;50.130;8.710;2023-08-24T00:09:22;100306.38;;;24.21;54.87
40954;BME280;26686;50.130;8.710;2023-08-24T00:14:23;100317.47;;;24.26;55.19
40954;BME280;26686;50.130;8.710;2023-08-24T00:19:25;100324.78;;;24.26;56.37
40954;BME280;26686;50.130;8.710;2023-08-24T00:24:26;100316.84;;;24.24;56.08
40954;BME280;26686;50.130;8.710;2023-08-24T00:29:27;100306.63;;;24.13;56.28
40954;BME280;26686;50.130;8.710;2023-08-24T00:34:29;100323.75;;;24.20;58.91
40954;BME280;26686;50.130;8.710;2023-08-24T00:39:30;100318.53;;;24.12;57.15
40954;BME280;26686;50.130;8.710;2023-08-24T00:44:32;100303.69;;;24.08;57.67
40954;BME280;26686;50.130;8.710;2023-08-24T00:49:35;100292.84;;;24.01;58.92
40954;BME280;26686;50.130;8.710;2023-08-24T00:54:38;100314.97;;;24.05;57.80
40954;BME280;26686;50.130;8.710;2023-08-24T00:59:40;100317.09;;;24.03;59.08
40954;BME280;26686;50.130;8.710;2023-08-24T01:04:42;100315.81;;;23.98;57.83
40954;BME280;26686;50.130;8.710;2023-08-24T01:09:47;100335.06;;;23.97;60.00
40954;BME280;26686;50.130;8.710;2023-08-24T01:20:02;100349.06;;;23.74;58.12
40954;BME280;26686;50.130;8.710;2023-08-24T01:30:09;100345.06;;;23.63;55.57
40954;BME280;26686;50.130;8.710;2023-08-24T01:35:11;100342.13;;;23.58;57.05
40954;BME280;26686;50.130;8.710;2023-08-24T01:40:21;100336.28;;;23.54;56.92
40954;BME280;26686;50.130;8.710;2023-08-24T01:45:28;100326.25;;;23.55;56.73
40954;BME280;26686;50.130;8.710;2023-08-24T01:50:31;100330.00;;;23.54;56.16
40954;BME280;26686;50.130;8.710;2023-08-24T01:55:32;100326.25;;;23.55;56.90
40954;BME280;26686;50.130;8.710;2023-08-24T02:00:34;100337.31;;;23.53;56.35
40954;BME280;26686;50.130;8.710;2023-08-24T02:05:35;100326.66;;;23.52;56.69
40954;BME280;26686;50.130;8.710;2023-08-24T02:10:36;100302.19;;;23.38;56.34
40954;BME280;26686;50.130;8.710;2023-08-24T02:15:38;100303.00;;;23.39;56.74
40954;BME280;26686;50.130;8.710;2023-08-24T02:20:42;100308.44;;;23.32;57.37
40954;BME280;26686;50.130;8.710;2023-08-24T02:25:44;100302.59;;;23.28;57.39
40954;BME280;26686;50.130;8.710;2023-08-24T02:30:45;100303.41;;;23.22;57.46
40954;BME280;26686;50.130;8.710;2023-08-24T02:35:47;100294.44;;;23.15;57.51
40954;BME280;26686;50.130;8.710;2023-08-24T02:40:49;100277.91;;;23.10;57.40
40954;BME280;26686;50.130;8.710;2023-08-24T02:45:50;100290.81;;;23.08;57.45
40954;BME280;26686;50.130;8.710;2023-08-24T02:50:52;100287.25;;;23.01;58.05
40954;BME280;26686;50.130;8.710;2023-08-24T02:55:55;100260.44;;;22.71;58.57
40954;BME280;26686;50.130;8.710;2023-08-24T03:00:57;100279.50;;;22.91;58.73
40954;BME280;26686;50.130;8.710;2023-08-24T03:06:00;100279.50;;;22.91;58.04
40954;BME280;26686;50.130;8.710;2023-08-24T03:11:02;100270.50;;;22.90;58.92
40954;BME280;26686;50.130;8.710;2023-08-24T03:16:04;100265.75;;;22.92;58.24
40954;BME280;26686;50.130;8.710;2023-08-24T03:21:06;100256.75;;;22.85;58.42
40954;BME280;26686;50.130;8.710;2023-08-24T03:26:08;100229.09;;;22.62;58.64
40954;BME280;26686;50.130;8.710;2023-08-24T03:31:09;100264.00;;;22.78;58.50
40954;BME280;26686;50.130;8.710;2023-08-24T03:36:10;100257.31;;;22.74;58.74
40954;BME280;26686;50.130;8.710;2023-08-24T03:41:12;100255.41;;;22.68;58.96
40954;BME280;26686;50.130;8.710;2023-08-24T03:46:14;100248.72;;;22.64;59.27
40954;BME280;26686;50.130;8.710;2023-08-24T03:51:16;100219.84;;;22.42;59.21
40954;BME280;26686;50.130;8.710;2023-08-24T03:56:17;100227.63;;;22.59;58.99
40954;BME280;26686;50.130;8.710;2023-08-24T04:01:18;100227.81;;;22.51;59.62
40954;BME280;26686;50.130;8.710;2023-08-24T04:06:20;100206.13;;;22.51;59.71
40954;BME280;26686;50.130;8.710;2023-08-24T04:11:22;100212.38;;;22.51;60.05
40954;BME280;26686;50.130;8.710;2023-08-24T04:16:23;100225.72;;;22.46;60.25
40954;BME280;26686;50.130;8.710;2023-08-24T04:21:24;100225.91;;;22.45;60.64
40954;BME280;26686;50.130;8.710;2023-08-24T04:26:26;100219.00;;;22.42;61.10
40954;BME280;26686;50.130;8.710;2023-08-24T04:31:27;100165.38;;;22.37;60.45
40954;BME280;26686;50.130;8.710;2023-08-24T04:36:29;100198.66;;;22.24;62.11
40954;BME280;26686;50.130;8.710;2023-08-24T04:41:30;100190.31;;;22.26;62.70
40954;BME280;26686;50.130;8.710;2023-08-24T04:46:33;100194.31;;;22.23;62.83
40954;BME280;26686;50.130;8.710;2023-08-24T04:51:35;100200.75;;;22.22;62.49
40954;BME280;26686;50.130;8.710;2023-08-24T04:56:36;100199.13;;;22.28;63.53
40954;BME280;26686;50.130;8.710;2023-08-24T05:01:38;100167.59;;;22.20;62.79
40954;BME280;26686;50.130;8.710;2023-08-24T05:06:39;100226.38;;;22.20;62.71
40954;BME280;26686;50.130;8.710;2023-08-24T05:11:41;100260.16;;;22.17;62.55
40954;BME280;26686;50.130;8.710;2023-08-24T05:16:42;100308.78;;;21.91;65.03
40954;BME280;26686;50.130;8.710;2023-08-24T05:21:44;100315.28;;;21.75;64.65
40954;BME280;26686;50.130;8.710;2023-08-24T05:26:45;100331.16;;;21.78;64.51
40954;BME280;26686;50.130;8.710;2023-08-24T05:31:47;100354.44;;;21.72;66.15
40954;BME280;26686;50.130;8.710;2023-08-24T05:36:49;100366.19;;;21.79;64.63
40954;BME280;26686;50.130;8.710;2023-08-24T05:41:51;100363.75;;;21.84;64.93
40954;BME280;26686;50.130;8.710;2023-08-24T05:46:53;100329.59;;;21.90;63.58
40954;BME280;26686;50.130;8.710;2023-08-24T05:51:54;100345.75;;;22.05;62.36
40954;BME280;26686;50.130;8.710;2023-08-24T05:56:56;100342.66;;;22.08;62.16
40954;BME280;26686;50.130;8.710;2023-08-24T06:02:02;100346.91;;;22.17;62.03
40954;BME280;26686;50.130;8.710;2023-08-24T06:07:04;100347.97;;;22.23;61.31
40954;BME280;26686;50.130;8.710;2023-08-24T06:12:06;100352.91;;;22.34;62.01
40954;BME280;26686;50.130;8.710;2023-08-24T06:17:08;100336.44;;;22.36;60.99
40954;BME280;26686;50.130;8.710;2023-08-24T06:22:10;100354.84;;;22.47;61.30
40954;BME280;26686;50.130;8.710;2023-08-24T06:27:11;100344.03;;;22.54;61.74
40954;BME280;26686;50.130;8.710;2023-08-24T06:32:12;100314.00;;;22.55;62.00
40954;BME280;26686;50.130;8.710;2023-08-24T06:37:14;100325.53;;;22.64;61.54
40954;BME280;26686;50.130;8.710;2023-08-24T06:42:15;100326.34;;;22.58;61.72
40954;BME280;26686;50.130;8.710;2023-08-24T06:47:17;100330.75;;;22.66;61.86
40954;BME280;26686;50.130;8.710;2023-08-24T06:52:18;100265.41;;;22.60;62.87
40954;BME280;26686;50.130;8.710;2023-08-24T06:57:20;100207.19;;;22.56;63.71
40954;BME280;26686;50.130;8.710;2023-08-24T07:02:22;100200.69;;;22.57;64.51
40954;BME280;26686;50.130;8.710;2023-08-24T07:07:24;100228.44;;;22.53;63.26
40954;BME280;26686;50.130;8.710;2023-08-24T07:12:25;100260.31;;;22.44;63.60
40954;BME280;26686;50.130;8.710;2023-08-24T07:17:27;100262.63;;;22.47;63.76
40954;BME280;26686;50.130;8.710;2023-08-24T07:22:29;100223.16;;;22.38;64.36
40954;BME280;26686;50.130;8.710;2023-08-24T07:27:35;100233.66;;;22.48;64.66
40954;BME280;26686;50.130;8.710;2023-08-24T07:32:36;100215.69;;;22.40;66.27
40954;BME280;26686;50.130;8.710;2023-08-24T07:37:38;100234.41;;;22.35;66.27
40954;BME280;26686;50.130;8.710;2023-08-24T07:42:47;100220.66;;;22.36;66.62
40954;BME280;26686;50.130;8.710;2023-08-24T07:47:49;100236.88;;;22.30;67.03
40954;BME280;26686;50.130;8.710;2023-08-24T07:52:51;100253.13;;;22.30;68.32
40954;BME280;26686;50.130;8.710;2023-08-24T07:57:57;100245.47;;;22.33;68.53
40954;BME280;26686;50.130;8.710;2023-08-24T08:02:58;100215.44;;;22.35;68.45
40954;BME280;26686;50.130;8.710;2023-08-24T08:08:00;100170.56;;;22.32;69.19
40954;BME280;26686;50.130;8.710;2023-08-24T08:13:02;100132.16;;;22.29;68.95
40954;BME280;26686;50.130;8.710;2023-08-24T08:18:04;100117.53;;;22.16;69.03
40954;BME280;26686;50.130;8.710;2023-08-24T08:23:06;100193.97;;;22.40;69.02
40954;BME280;26686;50.130;8.710;2023-08-24T08:28:07;100175.78;;;22.34;67.95
40954;BME280;26686;50.130;8.710;2023-08-24T08:33:09;100178.75;;;22.46;67.53
40954;BME280;26686;50.130;8.710;2023-08-24T08:38:10;100176.94;;;22.59;68.25
40954;BME280;26686;50.130;8.710;2023-08-24T08:43:12;100180.72;;;22.78;66.99
40954;BME280;26686;50.130;8.710;2023-08-24T08:48:14;100165.78;;;23.09;66.03
40954;BME280;26686;50.130;8.710;2023-08-24T08:53:16;100135.25;;;23.34;64.74
40954;BME280;26686;50.130;8.710;2023-08-24T08:58:19;100150.25;;;23.70;64.30
40954;BME280;26686;50.130;8.710;2023-08-24T09:03:21;100128.03;;;24.07;63.05
40954;BME280;26686;50.130;8.710;2023-08-24T09:08:27;100135.75;;;24.48;61.26
40954;BME280;26686;50.130;8.710;2023-08-24T09:13:29;100118.28;;;24.69;58.91
40954;BME280;26686;50.130;8.710;2023-08-24T09:18:35;100115.13;;;24.98;58.17
40954;BME280;26686;50.130;8.710;2023-08-24T09:23:38;100122.19;;;25.37;57.36
40954;BME280;26686;50.130;8.710;2023-08-24T09:28:44;100097.66;;;25.56;55.55
40954;BME280;26686;50.130;8.710;2023-08-24T09:33:47;100110.66;;;25.91;54.93
40954;BME280;26686;50.130;8.710;2023-08-24T09:38:49;100105.25;;;26.09;54.39
40954;BME280;26686;50.130;8.710;2023-08-24T09:43:51;100095.56;;;26.44;53.85
40954;BME280;26686;50.130;8.710;2023-08-24T09:48:53;100084.25;;;26.83;52.60
40954;BME280;26686;50.130;8.710;2023-08-24T09:53:57;100066.00;;;27.07;50.63
40954;BME280;26686;50.130;8.710;2023-08-24T09:59:10;100037.72;;;27.25;50.93
40954;BME280;26686;50.130;8.710;2023-08-24T10:04:14;100038.31;;;27.62;49.88
40954;BME280;26686;50.130;8.710;2023-08-24T10:09:22;100027.44;;;27.79;49.66
40954;BME280;26686;50.130;8.710;2023-08-24T10:14:31;100028.69;;;27.89;49.61
40954;BME280;26686;50.130;8.710;2023-08-24T10:19:33;100024.53;;;27.98;47.85
40954;BME280;26686;50.130;8.710;2023-08-24T10:24:35;100015.22;;;28.28;48.10
40954;BME280;26686;50.130;8.710;2023-08-24T10:29:37;100006.38;;;28.88;45.76
40954;BME280;26686;50.130;8.710;2023-08-24T10:34:39;99998.44;;;28.70;46.12
40954;BME280;26686;50.130;8.710;2023-08-24T10:39:45;99995.53;;;28.60;47.04
40954;BME280;26686;50.130;8.710;2023-08-24T10:44:48;100001.09;;;28.65;46.82
40954;BME280;26686;50.130;8.710;2023-08-24T10:55:00;99994.94;;;28.57;47.43
40954;BME280;26686;50.130;8.710;2023-08-24T11:00:07;99981.09;;;28.64;46.34
40954;BME280;26686;50.130;8.710;2023-08-24T11:05:20;99975.00;;;28.79;46.73
40954;BME280;26686;50.130;8.710;2023-08-24T11:10:24;99979.97;;;28.99;46.47
40954;BME280;26686;50.130;8.710;2023-08-24T11:15:30;99981.38;;;29.02;46.44
40954;BME280;26686;50.130;8.710;2023-08-24T11:20:32;99987.69;;;28.85;47.37
40954;BME280;26686;50.130;8.710;2023-08-24T11:25:35;99987.53;;;28.92;46.97
40954;BME280;26686;50.130;8.710;2023-08-24T11:30:37;99971.34;;;28.90;45.61
40954;BME280;26686;50.130;8.710;2023-08-24T11:35:41;99947.22;;;29.26;45.29
40954;BME280;26686;50.130;8.710;2023-08-24T11:40:43;99943.34;;;29.72;45.19
40954;BME280;26686;50.130;8.710;2023-08-24T11:45:44;99934.34;;;30.04;43.42
40954;BME280;26686;50.130;8.710;2023-08-24T11:50:46;99924.69;;;30.28;42.38
40954;BME280;26686;50.130;8.710;2023-08-24T11:55:52;99919.94;;;30.19;41.17
40954;BME280;26686;50.130;8.710;2023-08-24T12:01:07;99914.41;;;30.13;42.52
40954;BME280;26686;50.130;8.710;2023-08-24T12:06:14;99914.38;;;30.41;42.97
40954;BME280;26686;50.130;8.710;2023-08-24T12:11:18;99894.97;;;30.58;39.59
40954;BME280;26686;50.130;8.710;2023-08-24T12:16:21;99882.28;;;30.46;39.72
40954;BME280;26686;50.130;8.710;2023-08-24T12:21:23;99885.69;;;30.26;38.67
40954;BME280;26686;50.130;8.710;2023-08-24T12:26:26;99888.31;;;30.11;39.74
40954;BME280;26686;50.130;8.710;2023-08-24T12:31:29;99876.97;;;30.02;40.82
40954;BME280;26686;50.130;8.710;2023-08-24T12:36:34;99869.81;;;29.96;39.81
40954;BME280;26686;50.130;8.710;2023-08-24T12:41:38;99860.16;;;29.88;40.83
40954;BME280;26686;50.130;8.710;2023-08-24T12:46:39;99855.13;;;29.80;41.14
40954;BME280;26686;50.130;8.710;2023-08-24T12:51:44;99855.56;;;29.72;41.71
40954;BME280;26686;50.130;8.710;2023-08-24T12:56:46;99864.88;;;29.71;41.78
40954;BME280;26686;50.130;8.710;2023-08-24T13:01:47;99869.81;;;29.69;41.33
40954;BME280;26686;50.130;8.710;2023-08-24T13:06:49;99865.88;;;29.59;42.10
40954;BME280;26686;50.130;8.710;2023-08-24T13:11:50;99873.06;;;29.66;42.39
40954;BME280;26686;50.130;8.710;2023-08-24T13:16:52;99860.75;;;29.68;41.87
40954;BME280;26686;50.130;8.710;2023-08-24T13:21:53;99849.47;;;29.65;42.65
40954;BME280;26686;50.130;8.710;2023-08-24T13:26:55;99843.09;;;29.59;43.33
40954;BME280;26686;50.130;8.710;2023-08-24T13:31:56;99858.97;;;29.52;43.64
40954;BME280;26686;50.130;8.710;2023-08-24T13:36:58;99863.22;;;29.42;43.33
40954;BME280;26686;50.130;8.710;2023-08-24T13:42:00;99870.00;;;29.35;42.92
40954;BME280;26686;50.130;8.710;2023-08-24T13:47:02;99865.00;;;29.26;43.87
40954;BME280;26686;50.130;8.710;2023-08-24T13:52:04;99891.13;;;29.34;43.56
40954;BME280;26686;50.130;8.710;2023-08-24T13:57:05;99882.13;;;29.39;43.47
40954;BME280;26686;50.130;8.710;2023-08-24T14:02:07;99875.59;;;29.45;43.57
40954;BME280;26686;50.130;8.710;2023-08-24T14:07:09;99866.84;;;29.48;43.74
40954;BME280;26686;50.130;8.710;2023-08-24T14:12:10;99878.41;;;29.50;43.88
40954;BME280;26686;50.130;8.710;2023-08-24T14:17:12;99863.00;;;29.44;43.51
40954;BME280;26686;50.130;8.710;2023-08-24T14:22:14;99811.09;;;29.37;43.70
40954;BME280;26686;50.130;8.710;2023-08-24T14:27:15;99732.09;;;29.29;43.62
40954;BME280;26686;50.130;8.710;2023-08-24T14:32:17;99697.97;;;29.15;43.74
40954;BME280;26686;50.130;8.710;2023-08-24T14:37:19;99703.59;;;29.03;43.85
40954;BME280;26686;50.130;8.710;2023-08-24T14:42:21;99783.44;;;28.89;44.11
40954;BME280;26686;50.130;8.710;2023-08-24T14:47:22;99804.63;;;28.72;44.38
40954;BME280;26686;50.130;8.710;2023-08-24T14:52:24;99846.66;;;28.66;44.38
40954;BME280;26686;50.130;8.710;2023-08-24T14:57:25;99874.31;;;28.47;43.79
40954;BME280;26686;50.130;8.710;2023-08-24T15:02:27;99909.00;;;28.42;44.39
40954;BME280;26686;50.130;8.710;2023-08-24T15:07:28;99894.63;;;28.34;45.15
40954;BME280;26686;50.130;8.710;2023-08-24T15:12:30;99890.06;;;28.40;45.61
40954;BME280;26686;50.130;8.710;2023-08-24T15:17:31;99843.50;;;28.35;45.91
40954;BME280;26686;50.130;8.710;2023-08-24T15:22:33;99828.78;;;28.41;46.05
40954;BME280;26686;50.130;8.710;2023-08-24T15:27:36;99801.69;;;28.39;46.23
40954;BME280;26686;50.130;8.710;2023-08-24T15:32:38;99771.81;;;28.38;46.88
40954;BME280;26686;50.130;8.710;2023-08-24T15:37:39;99719.28;;;28.36;47.01
40954;BME280;26686;50.130;8.710;2023-08-24T15:42:41;99687.94;;;28.27;47.49
40954;BME280;26686;50.130;8.710;2023-08-24T15:47:42;99674.75;;;28.24;48.11
40954;BME280;26686;50.130;8.710;2023-08-24T15:52:44;99663.13;;;28.11;48.34
40954;BME280;26686;50.130;8.710;2023-08-24T15:57:45;99670.44;;;28.06;48.64
40954;BME280;26686;50.130;8.710;2023-08-24T16:02:47;99688.59;;;27.95;49.31
40954;BME280;26686;50.130;8.710;2023-08-24T16:07:51;99728.94;;;27.87;49.62
40954;BME280;26686;50.130;8.710;2023-08-24T16:12:54;99765.75;;;27.80;50.41
40954;BME280;26686;50.130;8.710;2023-08-24T16:17:55;99788.38;;;27.75;50.92
40954;BME280;26686;50.130;8.710;2023-08-24T16:22:57;99818.69;;;27.57;51.26
40954;BME280;26686;50.130;8.710;2023-08-24T16:27:59;99733.09;;;27.56;51.11
40954;BME280;26686;50.130;8.710;2023-08-24T16:33:00;99723.59;;;27.59;50.76
40954;BME280;26686;50.130;8.710;2023-08-24T16:38:02;99739.06;;;27.53;51.05
40954;BME280;26686;50.130;8.710;2023-08-24T16:43:04;99714.81;;;27.57;50.84
40954;BME280;26686;50.130;8.710;2023-08-24T16:48:06;99708.63;;;27.44;50.43
40954;BME280;26686;50.130;8.710;2023-08-24T16:53:08;99701.00;;;27.46;50.36
40954;BME280;26686;50.130;8.710;2023-08-24T16:58:10;99722.34;;;27.49;50.45
40954;BME280;26686;50.130;8.710;2023-08-24T17:03:11;99716.81;;;27.44;49.46
40954;BME280;26686;50.130;8.710;2023-08-24T17:08:13;99723.25;;;27.38;49.62
40954;BME280;26686;50.130;8.710;2023-08-24T17:13:16;99710.69;;;27.37;49.81
40954;BME280;26686;50.130;8.710;2023-08-24T17:18:17;99689.56;;;27.32;49.43
40954;BME280;26686;50.130;8.710;2023-08-24T17:23:19;99623.69;;;27.17;49.63
40954;BME280;26686;50.130;8.710;2023-08-24T17:28:21;99631.56;;;27.30;49.47
40954;BME280;26686;50.130;8.710;2023-08-24T17:33:22;99679.69;;;27.14;49.33
40954;BME280;26686;50.130;8.710;2023-08-24T17:38:24;99832.31;;;26.99;49.85
40954;BME280;26686;50.130;8.710;2023-08-24T17:43:25;99948.47;;;26.90;49.80
40954;BME280;26686;50.130;8.710;2023-08-24T17:48:27;99941.47;;;26.70;57.28
40954;BME280;26686;50.130;8.710;2023-08-24T17:53:29;99928.00;;;26.33;62.29
40954;BME280;26686;50.130;8.710;2023-08-24T17:58:32;99834.88;;;26.18;63.57
40954;BME280;26686;50.130;8.710;2023-08-24T18:03:33;99788.28;;;26.07;65.92
40954;BME280;26686;50.130;8.710;2023-08-24T18:08:35;99730.56;;;25.99;68.64
40954;BME280;26686;50.130;8.710;2023-08-24T18:13:51;99698.19;;;26.02;68.99
40954;BME280;26686;50.130;8.710;2023-08-24T18:18:57;99655.63;;;25.89;69.89
40954;BME280;26686;50.130;8.710;2023-08-24T18:23:59;99697.94;;;25.80;69.08
40954;BME280;26686;50.130;8.710;2023-08-24T18:29:00;99689.28;;;25.71;70.95
40954;BME280;26686;50.130;8.710;2023-08-24T18:34:02;99683.00;;;25.59;72.42
40954;BME280;26686;50.130;8.710;2023-08-24T18:39:04;99656.22;;;25.44;71.76
40954;BME280;26686;50.130;8.710;2023-08-24T18:44:06;99648.78;;;25.51;71.73
40954;BME280;26686;50.130;8.710;2023-08-24T18:49:07;99619.13;;;25.43;72.48
40954;BME280;26686;50.130;8.710;2023-08-24T18:54:09;99618.09;;;25.32;72.99
40954;BME280;26686;50.130;8.710;2023-08-24T18:59:10;99616.88;;;25.16;73.13
40954;BME280;26686;50.130;8.710;2023-08-24T19:04:12;99646.91;;;25.10;75.82
40954;BME280;26686;50.130;8.710;2023-08-24T19:09:13;99650.72;;;25.09;75.88
40954;BME280;26686;50.130;8.710;2023-08-24T19:14:15;99633.66;;;25.01;76.69
40954;BME280;26686;50.130;8.710;2023-08-24T19:19:16;99603.56;;;24.96;77.16
40954;BME280;26686;50.130;8.710;2023-08-24T19:24:18;99603.69;;;24.90;77.60
40954;BME280;26686;50.130;8.710;2023-08-24T19:29:20;99609.69;;;24.80;76.94
40954;BME280;26686;50.130;8.710;2023-08-24T19:34:21;99610.16;;;24.77;77.43
40954;BME280;26686;50.130;8.710;2023-08-24T19:39:23;99619.13;;;24.65;78.76
40954;BME280;26686;50.130;8.710;2023-08-24T19:44:24;99635.91;;;24.62;78.94
40954;BME280;26686;50.130;8.710;2023-08-24T19:49:25;99640.16;;;24.58;78.79
40954;BME280;26686;50.130;8.710;2023-08-24T19:54:28;99642.91;;;24.51;77.56
40954;BME280;26686;50.130;8.710;2023-08-24T19:59:29;99637.44;;;24.40;76.99
40954;BME280;26686;50.130;8.710;2023-08-24T20:04:30;99627.63;;;24.39;78.77
40954;BME280;26686;50.130;8.710;2023-08-24T20:09:32;99627.63;;;24.39;78.82
40954;BME280;26686;50.130;8.710;2023-08-24T20:14:34;99619.91;;;24.35;78.45
40954;BME280;26686;50.130;8.710;2023-08-24T20:19:37;99620.84;;;24.29;78.34
40954;BME280;26686;50.130;8.710;2023-08-24T20:24:38;99627.56;;;24.27;78.68
40954;BME280;26686;50.130;8.710;2023-08-24T20:29:40;99625.53;;;24.22;78.62
40954;BME280;26686;50.130;8.710;2023-08-24T20:34:41;99637.91;;;24.18;80.85
40954;BME280;26686;50.130;8.710;2023-08-24T20:39:43;99636.03;;;24.18;80.26
40954;BME280;26686;50.130;8.710;2023-08-24T20:44:45;99633.84;;;24.09;80.83
40954;BME280;26686;50.130;8.710;2023-08-24T20:49:47;99664.97;;;24.13;80.54
40954;BME280;26686;50.130;8.710;2023-08-24T20:54:49;99631.72;;;23.92;80.46
40954;BME280;26686;50.130;8.710;2023-08-24T20:59:51;99643.97;;;24.02;82.04
40954;BME280;26686;50.130;8.710;2023-08-24T21:04:53;99647.25;;;23.67;84.77
40954;BME280;26686;50.130;8.710;2023-08-24T21:09:56;99643.44;;;23.49;85.64
40954;BME280;26686;50.130;8.710;2023-08-24T21:14:58;99635.44;;;23.54;87.21
40954;BME280;26686;50.130;8.710;2023-08-24T21:20:00;99637.16;;;23.48;85.64
40954;BME280;26686;50.130;8.710;2023-08-24T21:25:01;99636.19;;;23.61;85.88
40954;BME280;26686;50.130;8.710;2023-08-24T21:30:04;99637.63;;;23.64;85.55
40954;BME280;26686;50.130;8.710;2023-08-24T21:35:07;99637.41;;;23.65;83.99
40954;BME280;26686;50.130;8.710;2023-08-24T21:40:09;99641.22;;;23.64;85.38
40954;BME280;26686;50.130;8.710;2023-08-24T21:45:10;99651.63;;;23.68;85.83
40954;BME280;26686;50.130;8.710;2023-08-24T21:50:12;99653.94;;;23.64;85.04
40954;BME280;26686;50.130;8.710;2023-08-24T21:55:14;99654.13;;;23.69;85.91
40954;BME280;26686;50.130;8.710;2023-08-24T22:00:15;99666.03;;;23.68;85.85
40954;BME280;26686;50.130;8.710;2023-08-24T22:05:17;99652.06;;;23.64;84.58
40954;BME280;26686;50.130;8.710;2023-08-24T22:10:18;99670.00;;;23.65;85.29
40954;BME280;26686;50.130;8.710;2023-08-24T22:15:21;99672.97;;;23.64;84.16
40954;BME280;26686;50.130;8.710;2023-08-24T22:20:23;99675.53;;;23.59;84.32
40954;BME280;26686;50.130;8.710;2023-08-24T22:25:25;99677.63;;;23.57;84.32
40954;BME280;26686;50.130;8.710;2023-08-24T22:30:28;99684.78;;;23.51;84.32
40954;BME280;26686;50.130;8.710;2023-08-24T22:35:30;99681.00;;;23.52;84.08
40954;BME280;26686;50.130;8.710;2023-08-24T22:40:31;99685.47;;;23.46;84.37
40954;BME280;26686;50.130;8.710;2023-08-24T22:45:39;99688.81;;;23.42;84.78
40954;BME280;26686;50.130;8.710;2023-08-24T22:50:41;99692.19;;;23.37;85.52
40954;BME280;26686;50.130;8.710;2023-08-24T22:55:43;99713.16;;;23.30;86.66
40954;BME280;26686;50.130;8.710;2023-08-24T23:00:44;99716.50;;;23.25;86.83
40954;BME280;26686;50.130;8.710;2023-08-24T23:05:45;99717.38;;;23.19;87.59
40954;BME280;26686;50.130;8.710;2023-08-24T23:10:47;99720.16;;;23.12;87.95
40954;BME280;26686;50.130;8.710;2023-08-24T23:15:49;99709.75;;;23.09;87.46
40954;BME280;26686;50.130;8.710;2023-08-24T23:20:51;99689.47;;;23.05;87.13
40954;BME280;26686;50.130;8.710;2023-08-24T23:25:52;99688.03;;;23.03;87.47
40954;BME280;26686;50.130;8.710;2023-08-24T23:30:54;99683.03;;;23.00;88.03
40954;BME280;26686;50.130;8.710;2023-08-24T23:35:58;99675.78;;;22.93;87.40
40954;BME280;26686;50.130;8.710;2023-08-24T23:40:59;99685.00;;;22.92;87.94
40954;BME280;26686;50.130;8.710;2023-08-24T23:46:04;99668.28;;;22.95;87.79
40954;BME280;26686;50.130;8.710;2023-08-24T23:51:07;99659.06;;;22.97;87.26
40954;BME280;26686;50.130;8.710;2023-08-24T23:56:09;99663.44;;;22.98;87.63
